Аэропорт
Мирный (UERR)

 UERR / MJZ
ЗЦ Хабаровск
Якутск (UEEE)
Якутск (UEEE)
 62.53470, 114.03900  / 1156 ft

 UERR 092000Z 00000MPS CAVOK 03/M10 Q1016 R25/CLRD60 NOSIG RMK QFE731
 TAF UERR 091400Z 0915/1015 21004G09MPS CAVOK FM092300 28005G10MPS 9999 SCT020CB TEMPO 0923/1006 2500 -SHSNRA SCT007 BKN017CB
UERR_j_0220
показать схемы
Название сценария Тип сценария Flight Simulator 9 Flight Simulator X Prepar3D v2 Prepar3D v3 Prepar3D v4 xPlane
UERR2013 X-plane бесплатный


2020 © VATRUS division (Privacy Policy)